Time;durP1;ratioP1;P1;durP2;ratioP2;P2;SDS_P1;SDS_P2;PMS_P1;PMS_P2;Temp;Humidity;BMP_temperature;BMP_pressure;BME280_temperature;BME280_humidity;BME280_pressure;Samples;Min_cycle;Max_cycle;Signal;HPM_P1;HPM_P2
2023/10/04 00:00:21;;;;;;;16.60;9.10;;;;;;;12.60;65.15;100829.21;107976;1256;61103;-71
2023/10/04 00:02:51;;;;;;;19.90;10.00;;;;;;;12.58;65.02;100828.26;107965;1255;73544;-71
2023/10/04 00:05:19;;;;;;;16.70;9.00;;;;;;;12.56;64.85;100828.61;107982;1256;70917;-71
2023/10/04 00:07:48;;;;;;;18.60;9.00;;;;;;;12.54;64.79;100828.95;107981;1256;72434;-70
2023/10/04 00:10:15;;;;;;;17.40;9.10;;;;;;;12.53;64.64;100828.39;108040;1256;61832;-71
2023/10/04 00:12:42;;;;;;;18.40;9.70;;;;;;;12.52;64.59;100824.96;107951;1255;60336;-71
2023/10/04 00:15:09;;;;;;;17.00;9.40;;;;;;;12.52;64.54;100820.30;107934;1256;74435;-71
2023/10/04 00:17:39;;;;;;;18.50;8.80;;;;;;;12.52;64.48;100815.70;108042;1255;72682;-72
2023/10/04 00:20:13;;;;;;;15.60;8.90;;;;;;;12.51;64.34;100811.73;107977;1255;71728;-70
2023/10/04 00:22:40;;;;;;;21.20;10.40;;;;;;;12.50;64.26;100808.94;107825;1256;61944;-71
2023/10/04 00:25:23;;;;;;;16.20;8.80;;;;;;;12.47;64.18;100807.64;107964;1256;59968;-72
2023/10/04 00:27:52;;;;;;;17.70;8.90;;;;;;;12.43;64.15;100808.27;107895;1259;74789;-73
2023/10/04 00:30:19;;;;;;;18.70;8.70;;;;;;;12.41;64.14;100806.92;109069;1255;72919;-71
2023/10/04 00:32:46;;;;;;;17.80;9.00;;;;;;;12.37;64.11;100802.67;109081;1255;72770;-71
2023/10/04 00:35:19;;;;;;;17.60;8.70;;;;;;;12.35;64.21;100800.58;109121;1255;60578;-72
2023/10/04 00:40:53;;;;;;;18.30;8.80;;;;;;;12.36;64.37;100800.37;105019;1289;602364;-71
2023/10/04 00:43:20;;;;;;;18.40;9.90;;;;;;;12.34;64.41;100800.70;107487;1266;59406;-72
2023/10/04 00:45:48;;;;;;;15.70;9.30;;;;;;;12.34;64.33;100796.08;107354;1266;60327;-71
2023/10/04 00:48:19;;;;;;;19.20;9.90;;;;;;;12.34;64.35;100793.98;107471;1267;72202;-71
2023/10/04 00:50:47;;;;;;;20.50;9.80;;;;;;;12.32;64.33;100791.52;107394;1267;72873;-71
2023/10/04 00:53:15;;;;;;;17.20;8.70;;;;;;;12.29;64.34;100792.09;107434;1260;240064;-71
2023/10/04 00:55:43;;;;;;;18.00;9.80;;;;;;;12.26;64.37;100791.27;107718;1260;61877;-70
2023/10/04 00:58:12;;;;;;;16.20;8.50;;;;;;;12.24;64.38;100791.92;107609;1260;60152;-72
2023/10/04 01:00:39;;;;;;;16.80;8.80;;;;;;;12.23;64.50;100791.86;107703;1260;71673;-72
2023/10/04 01:03:07;;;;;;;16.80;8.60;;;;;;;12.24;64.57;100794.06;107673;1260;72781;-72
2023/10/04 01:05:45;;;;;;;15.90;8.50;;;;;;;12.23;64.60;100791.70;107674;1263;72647;-71
2023/10/04 01:08:13;;;;;;;16.30;9.00;;;;;;;12.24;64.68;100786.78;107566;1260;61865;-72
2023/10/04 01:10:41;;;;;;;18.90;9.20;;;;;;;12.25;64.71;100784.74;107720;1259;60215;-71
2023/10/04 01:13:09;;;;;;;15.60;8.60;;;;;;;12.26;64.60;100780.83;107684;1259;72816;-72
2023/10/04 01:15:36;;;;;;;15.90;8.80;;;;;;;12.27;64.60;100780.55;107685;1263;72702;-71
2023/10/04 01:18:07;;;;;;;17.10;9.00;;;;;;;12.24;64.66;100779.61;107685;1260;72756;-71
2023/10/04 01:20:37;;;;;;;16.80;8.60;;;;;;;12.26;64.52;100780.73;107663;1260;60295;-71
2023/10/04 01:23:05;;;;;;;17.20;8.60;;;;;;;12.30;64.39;100776.66;107669;1260;60240;-72
2023/10/04 01:25:33;;;;;;;19.40;9.60;;;;;;;12.30;64.34;100775.05;107724;1260;73055;-71
2023/10/04 01:28:02;;;;;;;14.60;8.30;;;;;;;12.29;64.24;100774.58;107743;1259;72767;-71
2023/10/04 01:30:31;;;;;;;16.90;8.70;;;;;;;12.28;64.10;100772.54;107713;1260;71505;-71
2023/10/04 01:33:03;;;;;;;15.30;8.60;;;;;;;12.25;64.07;100773.34;107720;1260;63079;-72
2023/10/04 01:35:30;;;;;;;16.40;8.70;;;;;;;12.23;64.11;100774.99;107649;1260;61361;-72
2023/10/04 01:37:57;;;;;;;15.80;8.10;;;;;;;12.20;64.02;100773.10;107672;1260;72897;-71
2023/10/04 01:40:29;;;;;;;17.60;8.20;;;;;;;12.18;64.05;100775.67;107684;1260;72838;-72
2023/10/04 01:42:56;;;;;;;15.50;8.50;;;;;;;12.16;64.07;100776.20;107646;1260;71290;-72
2023/10/04 01:45:23;;;;;;;16.90;8.90;;;;;;;12.15;64.18;100775.08;107645;1263;61821;-71
2023/10/04 01:47:50;;;;;;;19.70;9.20;;;;;;;12.14;64.20;100772.81;107672;1263;59560;-71
2023/10/04 01:50:18;;;;;;;19.20;8.60;;;;;;;12.12;64.09;100766.65;107622;1262;73142;-72
2023/10/04 01:52:48;;;;;;;19.90;9.00;;;;;;;12.12;64.21;100768.24;107535;1263;73125;-71
2023/10/04 01:55:16;;;;;;;17.20;8.70;;;;;;;12.21;64.03;100761.86;107520;1262;72842;-72
2023/10/04 01:57:45;;;;;;;17.70;8.70;;;;;;;12.25;63.85;100760.54;107561;1260;61518;-71
2023/10/04 02:00:17;;;;;;;20.50;8.50;;;;;;;12.25;63.89;100756.41;107668;1262;59563;-72
2023/10/04 02:02:44;;;;;;;19.40;8.90;;;;;;;12.24;63.80;100752.83;107548;1263;72871;-72
2023/10/04 02:05:16;;;;;;;18.30;8.50;;;;;;;12.21;63.73;100753.45;107557;1260;72791;-71
2023/10/04 02:07:46;;;;;;;22.90;9.50;;;;;;;12.19;63.76;100747.66;107580;1262;72675;-71
2023/10/04 02:10:17;;;;;;;16.00;8.50;;;;;;;12.16;63.76;100747.75;107473;1262;60533;-71
2023/10/04 02:12:44;;;;;;;13.90;8.10;;;;;;;12.14;63.81;100747.10;107587;1260;61692;-71
2023/10/04 02:15:20;;;;;;;17.60;8.50;;;;;;;12.11;63.88;100744.89;107675;1260;72895;-71
2023/10/04 02:17:48;;;;;;;16.80;8.80;;;;;;;12.09;63.92;100738.48;107572;1260;74049;-71
2023/10/04 02:20:23;;;;;;;16.40;9.30;;;;;;;12.07;63.97;100735.94;107515;1260;72471;-72
2023/10/04 02:22:51;;;;;;;17.20;8.10;;;;;;;12.04;63.85;100731.48;107539;1263;60547;-71
2023/10/04 02:25:19;;;;;;;17.60;8.60;;;;;;;12.01;64.06;100727.58;107578;1262;60184;-72
2023/10/04 02:27:49;;;;;;;17.70;8.30;;;;;;;11.95;64.10;100725.83;107555;1260;71961;-71
2023/10/04 02:30:21;;;;;;;20.40;9.10;;;;;;;11.91;64.07;100721.91;107598;1260;72621;-72
2023/10/04 02:32:49;;;;;;;19.10;8.90;;;;;;;11.86;64.22;100718.79;107571;1262;72637;-72
2023/10/04 02:37:58;;;;;;;16.00;9.20;;;;;;;11.75;64.32;100709.02;107587;1260;60134;-71
2023/10/04 02:40:33;;;;;;;15.00;8.50;;;;;;;11.69;64.42;100706.27;107581;1260;72123;-71
2023/10/04 02:43:01;;;;;;;16.80;8.30;;;;;;;11.62;64.48;100700.66;107579;1263;72995;-71
2023/10/04 02:45:29;;;;;;;16.00;8.30;;;;;;;11.58;64.57;100699.52;107921;1260;72688;-70
2023/10/04 02:47:56;;;;;;;16.20;8.70;;;;;;;11.54;64.62;100697.83;107733;1262;60724;-72
2023/10/04 02:50:24;;;;;;;16.90;8.10;;;;;;;11.50;64.80;100695.93;107690;1260;60311;-71
2023/10/04 02:52:51;;;;;;;17.50;9.20;;;;;;;11.47;64.98;100696.99;107845;1257;71652;-70
2023/10/04 02:55:20;;;;;;;17.30;9.00;;;;;;;11.46;65.14;100696.14;107875;1261;72486;-71
2023/10/04 02:57:50;;;;;;;17.10;8.40;;;;;;;11.45;65.22;100696.49;107809;1260;71789;-71
2023/10/04 03:00:19;;;;;;;17.10;8.80;;;;;;;11.44;65.31;100693.13;107827;1257;60515;-70
2023/10/04 03:02:52;;;;;;;16.00;8.70;;;;;;;11.43;65.37;100695.05;107875;1257;60036;-72
2023/10/04 03:05:21;;;;;;;;;;;;;;;11.43;65.48;100699.06;107903;1257;73075;-72
2023/10/04 03:07:50;;;;;;;15.90;8.40;;;;;;;11.41;65.50;100700.98;107998;1257;72613;-72
2023/10/04 03:10:24;;;;;;;18.00;8.20;;;;;;;11.40;65.56;100698.29;108002;1257;72007;-71
2023/10/04 03:12:56;;;;;;;20.50;9.60;;;;;;;11.41;65.76;100694.08;108163;1256;61985;-73
2023/10/04 03:15:23;;;;;;;18.80;9.20;;;;;;;11.42;65.65;100690.19;108179;1257;60391;-72
2023/10/04 03:17:52;;;;;;;17.90;9.20;;;;;;;11.44;65.78;100685.80;108141;1256;73072;-71
2023/10/04 03:20:29;;;;;;;18.40;8.90;;;;;;;11.45;65.75;100689.06;108278;1255;71288;-71
2023/10/04 03:22:56;;;;;;;17.40;8.70;;;;;;;11.47;65.73;100680.30;108186;1257;72691;-71
2023/10/04 03:25:24;;;;;;;17.40;9.30;;;;;;;11.48;65.77;100681.58;108251;1257;61709;-72
2023/10/04 03:27:52;;;;;;;19.50;9.30;;;;;;;11.48;65.83;100678.28;108294;1253;60119;-72
2023/10/04 03:30:20;;;;;;;17.70;8.80;;;;;;;11.48;65.88;100679.52;108229;1256;73580;-71
2023/10/04 03:32:56;;;;;;;19.40;8.90;;;;;;;11.47;65.99;100676.23;108192;1254;71583;-71
2023/10/04 03:35:29;;;;;;;20.00;9.40;;;;;;;11.46;65.91;100669.88;108072;1254;72514;-71
2023/10/04 03:38:01;;;;;;;20.00;9.40;;;;;;;11.47;65.95;100663.66;108194;1253;61816;-70
2023/10/04 03:40:36;;;;;;;16.00;8.70;;;;;;;11.46;66.00;100662.33;108240;1254;60355;-71
2023/10/04 03:43:09;;;;;;;20.20;8.90;;;;;;;11.45;66.08;100654.56;108217;1254;73037;-71
2023/10/04 03:45:39;;;;;;;19.80;9.30;;;;;;;11.44;66.13;100650.92;108288;1253;72596;-71
2023/10/04 03:48:17;;;;;;;16.50;9.20;;;;;;;11.42;66.26;100648.88;108208;1254;72432;-71
2023/10/04 03:50:48;;;;;;;23.60;9.40;;;;;;;11.40;66.40;100649.14;108211;1254;60779;-71
2023/10/04 03:53:16;;;;;;;18.50;9.20;;;;;;;11.41;66.41;100640.36;108075;1254;59531;-71
2023/10/04 03:55:43;;;;;;;18.60;9.40;;;;;;;11.44;66.49;100642.46;108271;1258;72810;-70
2023/10/04 03:58:11;;;;;;;17.70;9.30;;;;;;;11.49;66.43;100647.30;108216;1253;72532;-71
2023/10/04 04:00:39;;;;;;;19.00;9.00;;;;;;;11.57;66.18;100644.71;108208;1253;72658;-70
2023/10/04 04:03:08;;;;;;;17.70;9.00;;;;;;;11.66;66.03;100645.45;108064;1254;61185;-72
2023/10/04 04:05:44;;;;;;;18.10;8.80;;;;;;;11.74;65.84;100649.28;108212;1254;59646;-71
2023/10/04 04:08:12;;;;;;;16.30;8.30;;;;;;;11.82;65.59;100647.43;108189;1254;72808;-72
2023/10/04 04:10:40;;;;;;;20.60;8.90;;;;;;;11.88;65.44;100653.11;108255;1254;72561;-71
2023/10/04 04:13:06;;;;;;;16.10;8.60;;;;;;;11.93;65.18;100648.26;108187;1254;71504;-71
2023/10/04 04:15:35;;;;;;;15.80;8.60;;;;;;;12.00;64.73;100645.70;108276;1253;60751;-70
2023/10/04 04:18:13;;;;;;;16.50;8.60;;;;;;;12.06;64.46;100639.78;108196;1253;60326;-71
2023/10/04 04:20:41;;;;;;;17.00;8.70;;;;;;;12.12;64.18;100644.11;108368;1254;73040;-70
2023/10/04 04:23:10;;;;;;;18.00;8.30;;;;;;;12.16;63.74;100653.77;108229;1254;72525;-72
2023/10/04 04:25:38;;;;;;;15.40;8.40;;;;;;;12.23;63.43;100657.58;108303;1254;72430;-71
2023/10/04 04:28:07;;;;;;;16.90;8.80;;;;;;;12.29;63.11;100659.15;108257;1254;60525;-71
2023/10/04 04:30:35;;;;;;;14.20;8.40;;;;;;;12.35;62.61;100653.91;108139;1254;59838;-71
2023/10/04 04:33:07;;;;;;;16.60;8.70;;;;;;;12.42;62.47;100651.89;108278;1253;72489;-71
2023/10/04 04:38:40;;;;;;;16.70;8.30;;;;;;;12.50;62.21;100641.86;108260;1253;72858;-70
2023/10/04 04:41:04;;;;;;;16.40;8.70;;;;;;;12.12;62.80;100641.75;108130;1254;61698;-72
2023/10/04 04:43:38;;;;;;;18.30;9.10;;;;;;;12.26;62.66;100640.88;108214;1256;60315;-72
2023/10/04 04:46:09;;;;;;;16.30;8.40;;;;;;;12.35;62.70;100635.68;108254;1254;72181;-71
2023/10/04 04:48:36;;;;;;;18.10;9.70;;;;;;;12.70;61.77;100636.08;108240;1253;71727;-72
2023/10/04 04:51:11;;;;;;;21.50;9.40;;;;;;;12.82;61.43;100638.64;108373;1254;72567;-74
2023/10/04 04:53:47;;;;;;;16.00;8.50;;;;;;;12.90;61.10;100635.95;108062;1253;62016;-71
2023/10/04 04:56:18;;;;;;;15.20;8.00;;;;;;;12.99;60.81;100635.35;108297;1254;60395;-72
2023/10/04 04:58:48;;;;;;;17.70;8.40;;;;;;;13.06;60.55;100627.23;108188;1256;73660;-72
2023/10/04 05:01:16;;;;;;;17.40;8.70;;;;;;;13.04;60.33;100625.41;108164;1254;72824;-71
2023/10/04 05:03:50;;;;;;;17.60;8.50;;;;;;;12.71;60.97;100626.32;108425;1253;72707;-72
2023/10/04 05:06:23;;;;;;;16.90;8.70;;;;;;;13.14;60.33;100628.23;108267;1253;60444;-72
2023/10/04 05:08:53;;;;;;;14.30;8.20;;;;;;;13.33;59.81;100622.48;108271;1254;60129;-71
2023/10/04 05:11:20;;;;;;;15.70;7.80;;;;;;;13.42;59.58;100620.09;108281;1254;73550;-71
2023/10/04 05:13:48;;;;;;;15.70;8.50;;;;;;;13.48;59.28;100614.10;108235;1254;71459;-69
2023/10/04 05:16:15;;;;;;;16.50;8.00;;;;;;;13.54;59.09;100612.85;108235;1253;71580;-71
2023/10/04 05:18:43;;;;;;;18.00;8.30;;;;;;;13.61;58.62;100621.41;108218;1253;61824;-72
2023/10/04 05:21:14;;;;;;;15.40;7.90;;;;;;;13.69;58.33;100619.76;108297;1252;60391;-71
2023/10/04 05:23:41;;;;;;;16.60;8.10;;;;;;;13.77;58.27;100624.16;108230;1254;72235;-70
2023/10/04 05:26:12;;;;;;;16.30;8.10;;;;;;;13.86;58.05;100629.11;108099;1254;72859;-72
2023/10/04 05:28:39;;;;;;;16.40;7.50;;;;;;;13.94;57.91;100625.74;108208;1254;73312;-71
2023/10/04 05:31:08;;;;;;;15.70;8.10;;;;;;;14.02;57.88;100621.56;108171;1258;62754;-71
2023/10/04 05:33:35;;;;;;;18.30;8.40;;;;;;;14.11;57.63;100623.06;108260;1254;60309;-72
2023/10/04 05:36:02;;;;;;;13.10;7.20;;;;;;;14.22;57.40;100619.55;108244;1256;75545;-70
2023/10/04 05:38:32;;;;;;;14.70;8.00;;;;;;;14.33;57.20;100615.92;108180;1254;72762;-71
2023/10/04 05:41:00;;;;;;;15.40;8.00;;;;;;;14.42;56.69;100615.48;108252;1252;72485;-72
2023/10/04 05:43:29;;;;;;;17.90;8.20;;;;;;;14.51;56.47;100617.47;108221;1254;61796;-72
2023/10/04 05:45:57;;;;;;;14.20;7.80;;;;;;;14.63;56.46;100614.90;108192;1254;61026;-72
2023/10/04 05:48:26;;;;;;;17.30;8.10;;;;;;;14.77;56.28;100611.17;108207;1253;74097;-70
2023/10/04 05:50:57;;;;;;;14.10;7.20;;;;;;;14.92;55.91;100599.84;108299;1253;73143;-72
2023/10/04 05:53:26;;;;;;;17.20;8.60;;;;;;;15.08;55.63;100594.14;108163;1253;72663;-72
2023/10/04 05:55:53;;;;;;;15.80;8.00;;;;;;;15.25;55.46;100587.91;108278;1254;60280;-71
2023/10/04 05:58:21;;;;;;;14.80;7.60;;;;;;;15.42;54.97;100583.73;108289;1254;60443;-71
2023/10/04 06:00:56;;;;;;;17.40;8.10;;;;;;;15.58;54.51;100586.11;108262;1252;73350;-71
2023/10/04 06:03:24;;;;;;;13.80;7.50;;;;;;;15.74;54.16;100581.98;108273;1251;72467;-72
2023/10/04 06:05:51;;;;;;;18.40;7.80;;;;;;;15.86;53.48;100579.50;108401;1253;71323;-73
2023/10/04 16:04:13;;;;;;;5.30;2.80;;;;;;;18.10;57.05;100911.21;105517;1283;615001;-79
2023/10/04 16:06:42;;;;;;;7.80;3.50;;;;;;;18.65;55.01;100918.78;107096;1270;167998;-78
2023/10/04 16:09:10;;;;;;;6.80;2.80;;;;;;;18.71;54.30;100921.73;107237;1267;59510;-79
2023/10/04 16:11:38;;;;;;;8.50;3.30;;;;;;;18.73;53.58;100926.16;107218;1270;73239;-78
2023/10/04 16:14:05;;;;;;;7.40;3.30;;;;;;;18.74;52.92;100927.65;107233;1267;71651;-78
2023/10/04 16:16:36;;;;;;;7.90;3.10;;;;;;;18.73;52.25;100928.31;107328;1267;72744;-79
2023/10/04 16:19:04;;;;;;;6.40;3.30;;;;;;;18.73;51.75;100931.18;107275;1270;60121;-79
2023/10/04 16:21:31;;;;;;;7.10;3.30;;;;;;;18.72;51.13;100935.66;107264;1268;62146;-78
2023/10/04 16:23:59;;;;;;;7.60;3.00;;;;;;;18.71;50.85;100933.48;107253;1268;72924;-79
2023/10/04 16:26:27;;;;;;;6.70;3.00;;;;;;;18.70;50.19;100930.87;107253;1272;71510;-79
2023/10/04 16:28:55;;;;;;;7.00;3.30;;;;;;;18.68;49.80;100923.03;107237;1269;71867;-78
2023/10/04 16:31:23;;;;;;;7.50;2.70;;;;;;;18.65;49.20;100912.29;107260;1267;58280;-79
2023/10/04 16:33:50;;;;;;;8.90;3.00;;;;;;;18.54;49.01;100909.91;107198;1267;60169;-79
2023/10/04 16:36:18;;;;;;;7.50;2.60;;;;;;;18.55;48.91;100906.55;107279;1268;72034;-78
2023/10/04 16:38:46;;;;;;;7.30;2.60;;;;;;;18.53;48.66;100911.99;107238;1268;72857;-80
2023/10/04 16:41:14;;;;;;;5.30;2.50;;;;;;;18.48;48.51;100912.29;107281;1267;72793;-79
2023/10/04 16:43:41;;;;;;;7.40;2.50;;;;;;;18.43;48.34;100918.04;107281;1267;59584;-79
2023/10/04 16:46:09;;;;;;;5.40;2.50;;;;;;;18.38;48.57;100922.04;107257;1267;60115;-78
2023/10/04 16:48:37;;;;;;;5.50;2.30;;;;;;;18.31;48.73;100928.05;107205;1269;73417;-80
2023/10/04 16:51:05;;;;;;;7.00;2.20;;;;;;;18.24;49.09;100937.34;107223;1267;73158;-80
2023/10/04 16:53:33;;;;;;;4.80;2.10;;;;;;;18.15;49.31;100938.84;107090;1269;73880;-79
2023/10/04 16:56:00;;;;;;;5.10;2.20;;;;;;;18.06;49.52;100941.10;107250;1269;59601;-79
2023/10/04 16:58:28;;;;;;;5.70;2.50;;;;;;;17.97;49.55;100943.65;107190;1269;59461;-80
2023/10/04 17:00:56;;;;;;;5.30;2.40;;;;;;;17.88;49.67;100946.45;107205;1269;75043;-80
2023/10/04 17:03:24;;;;;;;7.30;2.30;;;;;;;17.81;49.78;100954.67;92107;1269;20001980;-76
2023/10/04 17:05:54;;;;;;;5.10;2.30;;;;;;;17.76;49.82;100957.87;99579;1269;10001463;-78
2023/10/04 17:08:22;;;;;;;4.50;2.20;;;;;;;17.72;49.64;100960.46;106993;1270;71697;-78
2023/10/04 17:10:50;;;;;;;5.60;2.40;;;;;;;17.68;49.64;100960.90;106890;1270;59788;-78
2023/10/04 17:13:19;;;;;;;4.80;1.80;;;;;;;17.64;49.65;100961.35;106996;1270;60603;-79
2023/10/04 17:15:47;;;;;;;4.10;2.10;;;;;;;17.58;49.68;100964.66;107037;1269;72048;-79
2023/10/04 17:18:15;;;;;;;7.40;2.20;;;;;;;17.53;49.68;100959.73;107030;1273;73365;-79
2023/10/04 17:20:49;;;;;;;5.30;2.10;;;;;;;17.50;49.86;100959.77;107165;1266;72430;-79
2023/10/04 17:23:17;;;;;;;5.30;2.50;;;;;;;17.45;50.28;100964.45;107189;1266;60603;-80
2023/10/04 17:25:45;;;;;;;4.00;2.20;;;;;;;17.38;50.75;100972.92;107205;1267;59890;-79
2023/10/04 17:28:14;;;;;;;6.30;2.40;;;;;;;17.30;51.14;100973.35;107180;1267;75230;-81
2023/10/04 17:30:42;;;;;;;8.60;2.20;;;;;;;17.22;51.66;100977.37;107109;1267;72948;-80
2023/10/04 17:33:10;;;;;;;6.30;2.10;;;;;;;17.14;52.07;100980.98;107135;1266;74828;-82
2023/10/04 17:35:38;;;;;;;5.10;2.20;;;;;;;17.05;52.40;100979.30;107124;1266;62816;-80
2023/10/04 17:38:09;;;;;;;8.30;2.50;;;;;;;16.98;52.64;100983.77;107228;1266;59885;-78
2023/10/04 17:40:37;;;;;;;5.60;1.90;;;;;;;16.92;52.93;100984.77;107221;1266;73215;-80
2023/10/04 17:43:06;;;;;;;4.60;1.90;;;;;;;16.86;53.29;100984.89;107245;1266;73967;-77
2023/10/04 17:45:36;;;;;;;3.60;1.80;;;;;;;16.80;53.66;100985.98;107199;1267;72936;-80
2023/10/04 17:48:05;;;;;;;4.50;1.90;;;;;;;16.75;54.13;100988.79;107187;1267;60227;-78
2023/10/04 17:50:35;;;;;;;3.90;1.70;;;;;;;16.68;54.12;100992.67;107148;1267;59599;-77
2023/10/04 17:53:03;;;;;;;6.00;2.20;;;;;;;16.60;53.90;100995.72;107129;1268;73146;-80
2023/10/04 17:55:30;;;;;;;4.40;1.90;;;;;;;16.52;53.94;100997.16;107585;1256;71704;-79
2023/10/04 17:57:58;;;;;;;6.60;2.30;;;;;;;16.45;54.06;100999.89;107657;1260;71718;-79
2023/10/04 18:00:26;;;;;;;6.40;2.50;;;;;;;16.38;54.41;101005.60;107705;1256;61748;-79
2023/10/04 18:02:53;;;;;;;6.50;2.60;;;;;;;16.31;54.93;101011.23;107677;1256;60261;-79
2023/10/04 18:05:21;;;;;;;6.10;3.10;;;;;;;16.27;55.47;101011.65;107704;1256;75175;-80
2023/10/04 18:07:49;;;;;;;6.00;2.40;;;;;;;16.24;55.80;101015.61;107783;1257;71609;-79
2023/10/04 18:10:17;;;;;;;5.00;3.00;;;;;;;16.22;56.18;101020.79;107753;1257;72846;-79
2023/10/04 18:12:46;;;;;;;6.80;3.10;;;;;;;16.21;56.72;101025.81;107694;1256;60418;-80
2023/10/04 18:15:17;;;;;;;5.00;2.60;;;;;;;16.20;57.13;101025.61;107782;1256;59686;-80
2023/10/04 18:17:46;;;;;;;7.10;3.20;;;;;;;16.17;57.35;101029.36;107689;1256;75208;-79
2023/10/04 18:20:15;;;;;;;6.50;3.60;;;;;;;16.15;57.18;101029.97;107757;1256;73000;-79
2023/10/04 18:22:43;;;;;;;7.10;3.40;;;;;;;16.13;56.94;101033.55;107482;1263;74830;-79
2023/10/04 18:25:11;;;;;;;6.90;3.80;;;;;;;16.11;56.69;101039.91;107611;1257;59771;-79
2023/10/04 18:27:38;;;;;;;7.20;3.60;;;;;;;16.09;56.58;101042.30;107717;1256;61017;-80
2023/10/04 18:30:09;;;;;;;11.90;4.50;;;;;;;16.08;56.53;101046.39;107728;1257;73594;-80
2023/10/04 18:32:38;;;;;;;6.10;3.40;;;;;;;16.08;56.58;101051.41;107775;1256;72905;-79
2023/10/04 18:35:06;;;;;;;6.50;3.60;;;;;;;16.06;56.41;101050.31;107780;1260;72906;-79
2023/10/04 18:37:34;;;;;;;8.10;3.70;;;;;;;16.03;56.30;101055.98;107702;1256;63861;-80
2023/10/04 18:40:03;;;;;;;7.90;3.50;;;;;;;16.03;56.32;101063.27;107691;1257;60580;-80
2023/10/04 18:42:33;;;;;;;7.50;3.60;;;;;;;16.01;56.31;101063.05;108230;1256;73280;-80
2023/10/04 18:45:06;;;;;;;7.10;3.40;;;;;;;16.00;56.14;101065.83;107630;1256;74943;-80
2023/10/04 18:47:34;;;;;;;7.00;3.50;;;;;;;15.98;56.10;101070.46;107611;1257;71769;-79
2023/10/04 18:50:02;;;;;;;6.80;3.60;;;;;;;15.96;56.02;101073.88;107626;1256;59615;-80
2023/10/04 18:52:29;;;;;;;8.40;3.80;;;;;;;15.93;55.94;101075.79;107662;1256;59516;-81
2023/10/04 18:54:58;;;;;;;8.30;3.90;;;;;;;15.92;55.88;101080.48;107790;1257;72833;-80
2023/10/04 18:57:28;;;;;;;6.10;3.20;;;;;;;15.92;55.79;101081.05;107670;1256;72998;-79
2023/10/04 18:59:56;;;;;;;8.20;3.10;;;;;;;15.92;55.65;101083.00;107721;1258;73421;-80
2023/10/04 19:02:25;;;;;;;8.80;3.40;;;;;;;15.93;55.59;101088.45;107887;1256;60259;-80
2023/10/04 19:04:55;;;;;;;8.80;3.50;;;;;;;15.92;55.59;101083.48;107682;1256;59683;-81
2023/10/04 19:07:33;;;;;;;5.90;3.40;;;;;;;15.92;55.61;101083.80;107654;1256;74028;-80
2023/10/04 19:10:01;;;;;;;11.00;3.40;;;;;;;15.89;55.69;101089.54;107700;1256;73383;-79
2023/10/04 19:12:30;;;;;;;7.10;3.20;;;;;;;15.85;55.76;101088.60;107710;1257;73590;-80
2023/10/04 19:14:58;;;;;;;8.90;3.60;;;;;;;15.83;55.87;101089.43;107718;1256;61141;-79
2023/10/04 19:17:25;;;;;;;8.10;3.10;;;;;;;15.80;56.00;101094.98;107860;1256;61128;-81
2023/10/04 19:19:53;;;;;;;8.20;3.90;;;;;;;15.75;56.17;101094.52;107745;1257;75132;-80
2023/10/04 19:22:23;;;;;;;8.90;3.30;;;;;;;15.72;56.36;101092.34;107683;1256;73838;-79
2023/10/04 19:24:52;;;;;;;7.50;3.40;;;;;;;15.69;56.56;101095.59;107691;1256;72783;-78
2023/10/04 19:27:21;;;;;;;10.60;3.30;;;;;;;15.66;56.76;101100.98;107647;1258;59511;-80
2023/10/04 19:29:49;;;;;;;6.70;3.10;;;;;;;15.61;56.98;101098.45;107639;1256;60921;-79
2023/10/04 19:32:16;;;;;;;6.20;3.20;;;;;;;15.56;57.10;101098.37;107681;1256;75366;-78
2023/10/04 19:34:44;;;;;;;5.60;3.20;;;;;;;15.49;57.25;101100.56;107641;1256;72848;-79
2023/10/04 19:37:13;;;;;;;7.10;3.10;;;;;;;15.42;57.36;101101.73;107626;1262;75006;-78
2023/10/04 19:39:42;;;;;;;5.60;3.10;;;;;;;15.37;57.59;101098.52;107763;1256;64279;-79
2023/10/04 19:42:11;;;;;;;6.40;3.60;;;;;;;15.33;57.79;101095.46;107469;1256;59518;-80
2023/10/04 19:44:38;;;;;;;6.60;3.20;;;;;;;15.30;57.93;101096.77;107730;1256;73269;-79
2023/10/04 19:47:06;;;;;;;8.10;3.10;;;;;;;15.26;58.12;101097.20;107703;1257;72106;-80
2023/10/04 19:49:36;;;;;;;6.40;2.80;;;;;;;15.21;58.25;101102.77;107698;1256;73807;-78
2023/10/04 19:52:04;;;;;;;6.30;2.90;;;;;;;15.17;58.46;101107.46;107642;1256;62382;-79
2023/10/04 19:54:33;;;;;;;6.20;3.00;;;;;;;15.14;58.60;101110.16;107609;1256;60433;-79
2023/10/04 19:57:01;;;;;;;5.80;3.40;;;;;;;15.11;58.75;101108.34;107642;1257;72224;-79
2023/10/04 19:59:28;;;;;;;7.80;3.30;;;;;;;15.07;58.84;101109.33;107708;1257;73206;-80
2023/10/04 20:01:56;;;;;;;8.00;3.40;;;;;;;15.02;58.95;101114.02;107497;1257;72972;-78
2023/10/04 20:04:24;;;;;;;9.30;3.30;;;;;;;14.95;59.09;101113.28;107646;1257;61827;-80
2023/10/04 20:06:53;;;;;;;8.90;3.20;;;;;;;14.92;59.15;101114.68;107774;1256;59584;-79
2023/10/04 20:09:22;;;;;;;9.70;3.40;;;;;;;14.88;59.07;101114.05;107681;1256;73381;-79
2023/10/04 20:11:50;;;;;;;9.50;3.50;;;;;;;14.86;59.09;101113.09;107728;1256;72974;-80
2023/10/04 20:14:18;;;;;;;7.50;3.40;;;;;;;14.84;59.21;101114.98;107743;1257;72953;-79
2023/10/04 20:16:46;;;;;;;8.40;3.30;;;;;;;14.83;59.49;101113.03;107708;1256;60783;-79
2023/10/04 20:19:14;;;;;;;6.40;3.40;;;;;;;14.80;59.78;101120.14;107710;1257;60008;-79
2023/10/04 20:21:41;;;;;;;7.40;3.30;;;;;;;14.77;59.81;101120.58;107722;1256;73007;-77
2023/10/04 20:24:09;;;;;;;8.60;3.50;;;;;;;14.75;59.78;101123.85;107652;1256;72430;-82
2023/10/04 20:26:37;;;;;;;8.10;3.50;;;;;;;14.72;59.97;101123.27;107815;1256;71783;-82
2023/10/04 20:29:05;;;;;;;7.30;3.30;;;;;;;14.69;59.97;101119.61;107773;1256;60300;-83
2023/10/04 20:31:33;;;;;;;6.60;3.60;;;;;;;14.67;59.91;101120.52;107662;1256;60411;-83
2023/10/04 20:34:01;;;;;;;6.80;3.40;;;;;;;14.65;59.84;101124.57;107661;1256;74838;-78
2023/10/04 20:36:29;;;;;;;8.30;3.30;;;;;;;14.61;59.75;101125.90;107737;1257;73052;-81
2023/10/04 20:38:56;;;;;;;5.20;2.80;;;;;;;14.58;59.82;101126.29;107563;1260;72903;-78
2023/10/04 20:41:25;;;;;;;6.50;3.10;;;;;;;14.53;59.83;101128.33;107701;1256;60492;-78
2023/10/04 20:43:53;;;;;;;6.20;3.00;;;;;;;14.48;59.70;101129.54;107734;1256;60127;-79
2023/10/04 20:46:21;;;;;;;8.40;3.50;;;;;;;14.41;59.81;101128.84;107651;1256;74851;-78
2023/10/04 20:48:48;;;;;;;7.80;3.30;;;;;;;14.34;59.73;101137.86;107754;1260;70921;-79
2023/10/04 20:51:18;;;;;;;7.00;3.70;;;;;;;14.26;59.91;101143.77;107927;1256;71644;-78
2023/10/04 20:53:46;;;;;;;9.00;3.40;;;;;;;14.18;60.08;101141.93;107732;1256;60298;-78
2023/10/04 20:56:14;;;;;;;7.80;3.10;;;;;;;14.12;60.24;101142.08;107753;1256;60352;-80
2023/10/04 20:58:41;;;;;;;7.70;3.90;;;;;;;14.05;60.43;101143.63;107692;1257;73033;-78
2023/10/04 21:01:09;;;;;;;7.30;3.40;;;;;;;13.99;60.76;101146.51;107677;1257;71814;-79
2023/10/04 21:03:37;;;;;;;7.10;3.60;;;;;;;13.95;60.83;101145.36;107714;1256;71635;-78
2023/10/04 21:06:07;;;;;;;8.30;3.30;;;;;;;13.93;61.04;101140.86;107603;1257;60376;-79
2023/10/04 21:08:38;;;;;;;6.70;3.20;;;;;;;13.90;61.27;101144.77;107623;1256;59994;-78
2023/10/04 21:11:06;;;;;;;6.70;3.50;;;;;;;13.86;61.30;101148.89;107705;1256;74012;-79
2023/10/04 21:13:35;;;;;;;7.60;3.20;;;;;;;13.82;61.54;101142.18;107750;1256;72022;-80
2023/10/04 21:16:04;;;;;;;7.40;3.80;;;;;;;13.81;61.51;101143.23;107832;1256;71255;-81
2023/10/04 21:18:32;;;;;;;7.00;3.00;;;;;;;13.80;61.54;101143.56;107613;1257;61788;-83
2023/10/04 21:21:01;;;;;;;7.80;3.40;;;;;;;13.79;61.44;101148.98;107590;1256;60381;-80
2023/10/04 21:23:29;;;;;;;6.80;3.40;;;;;;;13.64;61.74;101147.32;107754;1256;73858;-80